Tri Cities Regional Tn Va Airport Bristol,Johnson,Kingsport US
ICAO: KTRI
IATA: TRI
Category: Large
Scheduled Services: Yes

Elevation: 1519 ft
TransAlt. 18000 ft.

Airport Communications:
APP:119.25
ATIS:118.25
CTAF:119.5
DEP:125.5
GND:121.7
NASHVILLE RDO:122.2
TWR:119.5
UNICOM:122.95

KTRI Zoom In..

Runways:

(A) RW 05 length 8000 ft width 150 ft
ILS 111.50 / hdg 48

(B) RW 09 length 4442 ft width 150 ft
---- / hdg 94

(C) RW 23 length 8000 ft width 150 ft
ILS 109.90 / hdg 228

(D) RW 27 length 4442 ft width 150 ft
---- / hdg 274

Location; KTRI
Day. 15 / Time. 21.53 Zulu
* Altimeter: 30.04
* Temperature: 31° c. 87.8°f.
* Wind from: KTR° Speed I kn.
Dewpoint: 20° c.
Visibility: 10 Statute Miles.
Clouds: Few 4500 ft.
Clouds: Scattered 5000 ft.
Clouds: Broken 25000 ft.

KTRI 152153Z 35005KT 10SM FEW045 SCT050 BKN250 31/20 A3004 RMK AO2 SLP143 T03110200


Wind From KTR°
Speed I kn.

 
 
jpsmedia.com for Web Design worldairports.se 2018   terms of use